Time;durP1;ratioP1;P1;durP2;ratioP2;P2;SDS_P1;SDS_P2;PMS_P1;PMS_P2;Temp;Humidity;BMP_temperature;BMP_pressure;BME280_temperature;BME280_humidity;BME280_pressure;Samples;Min_cycle;Max_cycle;Signal;HPM_P1;HPM_P2
2023/02/04 00:00:18;;;;;;;;;;;9.20;99.90;;;;;;5091120;28;20450;-62
2023/02/04 00:02:43;;;;;;;;;;;9.20;99.90;;;;;;5087572;28;19920;-62
2023/02/04 00:05:10;;;;;;;;;;;9.20;99.90;;;;;;5086880;28;19912;-62
2023/02/04 00:07:35;;;;;;;;;;;9.20;99.90;;;;;;5083814;28;19923;-59
2023/02/04 00:10:01;;;;;;;;;;;9.10;99.90;;;;;;5089630;28;19923;-61
2023/02/04 00:12:27;;;;;;;;;;;9.10;99.90;;;;;;5083704;28;19920;-61
2023/02/04 00:14:52;;;;;;;;;;;9.10;99.90;;;;;;5085270;28;19986;-61
2023/02/04 00:17:18;;;;;;;;;;;9.10;99.90;;;;;;5088917;28;19916;-60
2023/02/04 00:19:43;;;;;;;;;;;9.10;99.90;;;;;;5088874;28;19912;-61
2023/02/04 00:22:09;;;;;;;;;;;9.10;99.90;;;;;;5089975;28;19912;-61
2023/02/04 00:24:35;;;;;;;;;;;9.10;99.90;;;;;;5090725;28;20361;-61
2023/02/04 00:27:01;;;;;;;;;;;9.10;99.90;;;;;;5089128;28;19919;-61
2023/02/04 00:29:26;;;;;;;;;;;9.10;99.90;;;;;;5091849;28;19912;-61
2023/02/04 00:31:52;;;;;;;;;;;9.00;99.90;;;;;;5090982;28;19943;-59
2023/02/04 00:34:17;;;;;;;;;;;9.00;99.90;;;;;;5091226;28;19920;-60
2023/02/04 00:36:43;;;;;;;;;;;9.00;99.90;;;;;;5086340;28;19917;-60
2023/02/04 00:39:08;;;;;;;;;;;9.00;99.90;;;;;;5069571;28;19948;-59
2023/02/04 00:41:34;;;;;;;;;;;8.90;99.90;;;;;;5093008;28;20019;-58
2023/02/04 00:43:59;;;;;;;;;;;8.90;99.90;;;;;;5085983;28;20004;-59
2023/02/04 00:46:25;;;;;;;;;;;8.90;99.90;;;;;;5091851;28;19918;-60
2023/02/04 00:48:50;;;;;;;;;;;8.90;99.90;;;;;;5090135;28;20398;-60
2023/02/04 00:51:16;;;;;;;;;;;8.90;99.90;;;;;;5090094;28;20355;-61
2023/02/04 00:53:41;;;;;;;;;;;8.90;99.90;;;;;;5086761;28;20366;-60
2023/02/04 00:56:07;;;;;;;;;;;8.90;99.90;;;;;;5090683;28;20277;-61
2023/02/04 00:58:32;;;;;;;;;;;8.80;99.90;;;;;;5088506;28;19970;-61
2023/02/04 01:00:57;;;;;;;;;;;8.80;99.90;;;;;;5078127;28;19921;-61
2023/02/04 01:03:23;;;;;;;;;;;8.80;99.90;;;;;;5084218;28;20373;-61
2023/02/04 01:05:48;;;;;;;;;;;8.80;99.90;;;;;;5087646;28;20380;-61
2023/02/04 01:08:14;;;;;;;;;;;8.80;99.90;;;;;;5087739;28;19985;-61
2023/02/04 01:10:39;;;;;;;;;;;8.70;99.90;;;;;;5085276;28;19924;-62
2023/02/04 01:13:05;;;;;;;;;;;8.80;99.90;;;;;;5084225;28;19919;-61
2023/02/04 01:15:30;;;;;;;;;;;8.80;99.90;;;;;;5087685;28;20355;-61
2023/02/04 01:17:56;;;;;;;;;;;8.80;99.90;;;;;;5086003;28;19920;-62
2023/02/04 01:20:21;;;;;;;;;;;8.70;99.90;;;;;;5083783;28;20003;-62
2023/02/04 01:22:47;;;;;;;;;;;8.70;99.90;;;;;;5081601;28;19960;-62
2023/02/04 01:25:12;;;;;;;;;;;8.70;99.90;;;;;;5087189;28;19919;-61
2023/02/04 01:27:37;;;;;;;;;;;8.70;99.90;;;;;;5084667;28;19916;-61
2023/02/04 01:30:04;;;;;;;;;;;8.70;99.90;;;;;;5084004;28;19912;-62
2023/02/04 01:32:29;;;;;;;;;;;8.70;99.90;;;;;;5085007;28;19927;-59
2023/02/04 01:34:54;;;;;;;;;;;8.60;99.90;;;;;;5083470;28;19974;-61
2023/02/04 01:37:20;;;;;;;;;;;8.60;99.90;;;;;;5082481;28;20059;-61
2023/02/04 01:39:45;;;;;;;;;;;8.60;99.90;;;;;;5085389;28;19912;-61
2023/02/04 01:42:11;;;;;;;;;;;8.60;99.90;;;;;;5088118;28;19912;-62
2023/02/04 01:44:36;;;;;;;;;;;8.60;99.90;;;;;;5083972;28;19920;-59
2023/02/04 01:47:02;;;;;;;;;;;8.60;99.90;;;;;;5089751;28;19937;-61
2023/02/04 01:49:28;;;;;;;;;;;8.60;99.90;;;;;;5086294;28;19919;-62
2023/02/04 01:51:53;;;;;;;;;;;8.60;99.90;;;;;;5089441;28;20048;-60
2023/02/04 01:54:20;;;;;;;;;;;8.50;99.90;;;;;;5085082;28;19966;-60
2023/02/04 01:56:47;;;;;;;;;;;8.50;99.90;;;;;;5087652;28;19977;-62
2023/02/04 01:59:14;;;;;;;;;;;8.60;99.90;;;;;;5087700;28;20013;-62
2023/02/04 02:01:41;;;;;;;;;;;8.50;99.90;;;;;;5060160;28;19919;-61
2023/02/04 02:04:07;;;;;;;;;;;8.50;99.90;;;;;;5087569;28;19938;-61
2023/02/04 02:06:34;;;;;;;;;;;8.50;99.90;;;;;;5084815;28;19985;-61
2023/02/04 02:09:00;;;;;;;;;;;8.50;99.90;;;;;;5086923;28;19943;-60
2023/02/04 02:11:25;;;;;;;;;;;8.50;99.90;;;;;;5089210;28;19916;-61
2023/02/04 02:13:51;;;;;;;;;;;8.50;99.90;;;;;;5084402;28;19935;-62
2023/02/04 02:16:17;;;;;;;;;;;8.50;99.90;;;;;;5084470;28;19922;-61
2023/02/04 02:18:42;;;;;;;;;;;8.40;99.90;;;;;;5087993;28;20407;-61
2023/02/04 02:21:09;;;;;;;;;;;8.50;99.90;;;;;;5087419;28;19916;-61
2023/02/04 02:23:56;;;;;;;;;;;8.40;99.90;;;;;;5082627;28;20034;-60
2023/02/04 02:26:22;;;;;;;;;;;8.50;99.90;;;;;;5086029;28;20162;-61
2023/02/04 02:28:48;;;;;;;;;;;8.50;99.90;;;;;;5087518;28;20044;-59
2023/02/04 02:31:14;;;;;;;;;;;8.50;99.90;;;;;;5090948;28;19912;-61
2023/02/04 02:33:39;;;;;;;;;;;8.40;99.90;;;;;;5086148;28;19920;-59
2023/02/04 02:36:05;;;;;;;;;;;8.40;99.90;;;;;;5088778;28;20356;-58
2023/02/04 02:38:31;;;;;;;;;;;8.40;99.90;;;;;;5081277;28;19965;-61
2023/02/04 02:40:56;;;;;;;;;;;8.40;99.90;;;;;;5087395;28;19920;-61
2023/02/04 02:43:24;;;;;;;;;;;8.40;99.90;;;;;;5082161;28;19983;-62
2023/02/04 02:45:49;;;;;;;;;;;8.40;99.90;;;;;;5084637;28;20010;-58
2023/02/04 02:48:15;;;;;;;;;;;8.40;99.90;;;;;;5083016;28;20006;-62
2023/02/04 02:50:41;;;;;;;;;;;8.40;99.90;;;;;;5086780;28;19970;-61
2023/02/04 02:53:14;;;;;;;;;;;8.40;99.90;;;;;;5082696;28;19912;-62
2023/02/04 02:55:40;;;;;;;;;;;8.40;99.90;;;;;;5083414;28;19916;-61
2023/02/04 02:58:11;;;;;;;;;;;8.30;99.90;;;;;;5088960;28;19920;-61
2023/02/04 03:00:36;;;;;;;;;;;8.30;99.90;;;;;;5082779;28;19920;-61
2023/02/04 03:03:11;;;;;;;;;;;8.30;99.90;;;;;;5082816;28;19934;-60
2023/02/04 03:05:40;;;;;;;;;;;8.30;99.90;;;;;;5083605;28;19923;-61
2023/02/04 03:08:05;;;;;;;;;;;8.30;99.90;;;;;;5084513;28;19922;-59
2023/02/04 03:10:31;;;;;;;;;;;8.30;99.90;;;;;;5080399;28;20354;-61
2023/02/04 03:12:56;;;;;;;;;;;8.30;99.90;;;;;;5089793;28;19926;-61
2023/02/04 03:15:22;;;;;;;;;;;8.30;99.90;;;;;;5087713;28;20451;-61
2023/02/04 03:17:47;;;;;;;;;;;8.30;99.90;;;;;;5087122;28;20379;-60
2023/02/04 03:20:14;;;;;;;;;;;8.30;99.90;;;;;;5086606;28;19912;-60
2023/02/04 03:22:40;;;;;;;;;;;8.40;99.90;;;;;;5090340;28;19916;-60
2023/02/04 03:25:05;;;;;;;;;;;8.30;99.90;;;;;;5087575;28;19912;-62
2023/02/04 03:27:31;;;;;;;;;;;8.30;99.90;;;;;;5089093;28;20406;-62
2023/02/04 03:29:57;;;;;;;;;;;8.30;99.90;;;;;;5089164;28;19955;-62
2023/02/04 03:32:22;;;;;;;;;;;8.30;99.90;;;;;;5089416;28;19987;-61
2023/02/04 03:34:47;;;;;;;;;;;8.20;99.90;;;;;;5089603;28;19931;-61
2023/02/04 03:37:13;;;;;;;;;;;8.30;99.90;;;;;;5090945;28;20482;-60
2023/02/04 03:39:39;;;;;;;;;;;8.20;99.90;;;;;;5088061;28;20414;-61
2023/02/04 03:42:04;;;;;;;;;;;8.20;99.90;;;;;;5087480;28;19927;-61
2023/02/04 03:44:30;;;;;;;;;;;8.30;99.90;;;;;;5087669;28;19920;-62
2023/02/04 03:46:55;;;;;;;;;;;8.20;99.90;;;;;;5088036;28;19972;-57
2023/02/04 03:49:21;;;;;;;;;;;8.30;99.90;;;;;;5088775;28;19985;-61
2023/02/04 03:51:46;;;;;;;;;;;8.30;99.90;;;;;;5089971;28;20386;-62
2023/02/04 03:54:12;;;;;;;;;;;8.30;99.90;;;;;;5085130;28;20459;-62
2023/02/04 03:56:37;;;;;;;;;;;8.20;99.90;;;;;;5088368;28;19920;-62
2023/02/04 03:59:03;;;;;;;;;;;8.20;99.90;;;;;;5090836;28;20308;-61
2023/02/04 04:01:28;;;;;;;;;;;8.30;99.90;;;;;;5087492;28;19916;-60
2023/02/04 04:03:54;;;;;;;;;;;8.20;99.90;;;;;;5082787;28;19917;-61
2023/02/04 04:06:19;;;;;;;;;;;8.20;99.90;;;;;;5086999;28;19912;-60
2023/02/04 04:08:44;;;;;;;;;;;8.20;99.90;;;;;;5084925;28;20303;-61
2023/02/04 04:11:10;;;;;;;;;;;8.10;99.90;;;;;;5087221;28;19985;-60
2023/02/04 04:13:35;;;;;;;;;;;8.10;99.90;;;;;;5087455;28;19928;-59
2023/02/04 04:16:02;;;;;;;;;;;8.10;99.90;;;;;;5086361;28;19943;-57
2023/02/04 04:18:28;;;;;;;;;;;8.10;99.90;;;;;;5085571;28;20395;-58
2023/02/04 04:20:53;;;;;;;;;;;8.00;99.90;;;;;;5087120;28;19938;-60
2023/02/04 04:23:18;;;;;;;;;;;8.00;99.90;;;;;;5082440;28;19920;-62
2023/02/04 04:25:44;;;;;;;;;;;8.00;99.90;;;;;;5086031;28;20419;-60
2023/02/04 04:28:10;;;;;;;;;;;8.00;99.90;;;;;;5086311;28;20240;-62
2023/02/04 04:30:35;;;;;;;;;;;8.00;99.90;;;;;;5084590;28;20279;-62
2023/02/04 04:33:00;;;;;;;;;;;7.80;99.90;;;;;;5084650;28;19955;-61
2023/02/04 04:35:26;;;;;;;;;;;7.80;99.90;;;;;;5087334;28;19916;-62
2023/02/04 04:37:51;;;;;;;;;;;7.80;99.90;;;;;;5087148;28;20410;-61
2023/02/04 04:40:17;;;;;;;;;;;7.80;99.90;;;;;;5084143;28;20364;-62
2023/02/04 04:42:42;;;;;;;;;;;7.80;99.90;;;;;;5085962;28;19947;-61
2023/02/04 04:45:09;;;;;;;;;;;7.80;99.90;;;;;;5084574;28;19932;-61
2023/02/04 04:47:34;;;;;;;;;;;7.90;99.90;;;;;;5087146;28;19924;-63
2023/02/04 04:50:00;;;;;;;;;;;7.80;99.90;;;;;;5086659;28;20007;-61
2023/02/04 04:52:25;;;;;;;;;;;7.80;99.90;;;;;;5089534;28;19920;-62
2023/02/04 04:54:51;;;;;;;;;;;7.80;99.90;;;;;;5088013;28;20002;-61
2023/02/04 04:57:16;;;;;;;;;;;7.80;99.90;;;;;;5087015;28;19912;-61
2023/02/04 04:59:41;;;;;;;;;;;7.80;99.90;;;;;;5087871;28;20078;-63
2023/02/04 05:02:07;;;;;;;;;;;7.80;99.90;;;;;;5087042;28;19919;-61
2023/02/04 05:04:32;;;;;;;;;;;7.80;99.90;;;;;;5085242;28;20003;-61
2023/02/04 05:06:58;;;;;;;;;;;7.80;99.90;;;;;;5086743;28;20000;-60
2023/02/04 05:09:23;;;;;;;;;;;7.80;99.90;;;;;;5085626;28;19921;-61
2023/02/04 05:11:49;;;;;;;;;;;7.80;99.90;;;;;;5085801;28;20032;-61
2023/02/04 05:14:14;;;;;;;;;;;7.80;99.90;;;;;;5083353;28;19959;-61
2023/02/04 05:16:39;;;;;;;;;;;7.70;99.90;;;;;;5084541;28;19920;-58
2023/02/04 05:19:05;;;;;;;;;;;7.70;99.90;;;;;;5086058;28;19916;-61
2023/02/04 05:21:30;;;;;;;;;;;7.70;99.90;;;;;;5082083;28;20010;-62
2023/02/04 05:23:56;;;;;;;;;;;7.70;99.90;;;;;;5084940;28;20384;-62
2023/02/04 05:26:21;;;;;;;;;;;7.70;99.90;;;;;;5091210;28;20376;-62
2023/02/04 05:28:47;;;;;;;;;;;7.70;99.90;;;;;;5089563;28;20318;-61
2023/02/04 05:31:12;;;;;;;;;;;7.70;99.90;;;;;;5084853;28;19912;-60
2023/02/04 05:33:38;;;;;;;;;;;7.70;99.90;;;;;;5086056;28;19918;-60
2023/02/04 05:36:03;;;;;;;;;;;7.70;99.90;;;;;;5085754;28;19920;-62
2023/02/04 05:38:28;;;;;;;;;;;7.70;99.90;;;;;;5091696;28;19924;-61
2023/02/04 05:40:54;;;;;;;;;;;7.70;99.90;;;;;;5082727;28;19974;-61
2023/02/04 05:43:19;;;;;;;;;;;7.70;99.90;;;;;;5082260;28;19920;-61
2023/02/04 05:45:45;;;;;;;;;;;7.70;99.90;;;;;;5085754;28;19920;-59
2023/02/04 05:48:10;;;;;;;;;;;7.70;99.90;;;;;;5088232;28;19920;-61
2023/02/04 05:50:36;;;;;;;;;;;7.70;99.90;;;;;;5087788;28;19919;-61
2023/02/04 05:53:01;;;;;;;;;;;7.70;99.90;;;;;;5081234;28;19912;-61
2023/02/04 05:55:27;;;;;;;;;;;7.70;99.90;;;;;;5086885;28;19919;-60
2023/02/04 05:57:52;;;;;;;;;;;7.60;99.90;;;;;;5083408;28;19912;-59
2023/02/04 06:00:19;;;;;;;;;;;7.60;99.90;;;;;;5087063;28;21266;-61
2023/02/04 06:02:45;;;;;;;;;;;7.60;99.90;;;;;;5083933;28;19947;-61
2023/02/04 06:05:10;;;;;;;;;;;7.60;99.90;;;;;;5085035;28;20404;-59
2023/02/04 06:07:36;;;;;;;;;;;7.60;99.90;;;;;;5069217;28;19919;-62
2023/02/04 06:10:01;;;;;;;;;;;7.60;99.90;;;;;;5085479;28;20385;-61
2023/02/04 06:12:27;;;;;;;;;;;7.60;99.90;;;;;;5085146;28;19916;-61
2023/02/04 06:14:52;;;;;;;;;;;7.60;99.90;;;;;;5083050;28;19916;-59
2023/02/04 06:17:17;;;;;;;;;;;7.50;99.90;;;;;;5083577;28;19970;-61
2023/02/04 06:19:43;;;;;;;;;;;7.50;99.90;;;;;;5084390;28;19919;-61
2023/02/04 06:22:08;;;;;;;;;;;7.50;99.90;;;;;;5085321;28;19920;-61
2023/02/04 06:24:34;;;;;;;;;;;7.50;99.90;;;;;;5082590;28;20287;-61
2023/02/04 06:26:59;;;;;;;;;;;7.50;99.90;;;;;;5084073;28;19912;-61
2023/02/04 06:29:25;;;;;;;;;;;7.50;99.90;;;;;;5082751;28;20011;-59
2023/02/04 06:31:50;;;;;;;;;;;7.50;99.90;;;;;;5082340;28;20407;-61
2023/02/04 06:34:16;;;;;;;;;;;7.50;99.90;;;;;;5086145;28;19916;-61
2023/02/04 06:36:41;;;;;;;;;;;7.50;99.90;;;;;;5084936;28;20003;-61
2023/02/04 06:39:06;;;;;;;;;;;7.50;99.90;;;;;;5087089;28;19919;-60
2023/02/04 06:41:32;;;;;;;;;;;7.50;99.90;;;;;;5083560;28;19912;-59
2023/02/04 06:43:57;;;;;;;;;;;7.50;99.90;;;;;;5085301;28;19926;-61
2023/02/04 06:46:23;;;;;;;;;;;7.50;99.90;;;;;;5084990;28;21115;-61
2023/02/04 06:48:48;;;;;;;;;;;7.50;99.90;;;;;;5085063;28;19917;-60
2023/02/04 06:51:14;;;;;;;;;;;7.50;99.90;;;;;;5090356;28;19916;-61
2023/02/04 06:53:42;;;;;;;;;;;7.50;99.90;;;;;;5089216;28;19916;-61
2023/02/04 06:56:08;;;;;;;;;;;7.50;99.90;;;;;;5088501;28;20007;-61
2023/02/04 06:58:34;;;;;;;;;;;7.50;99.90;;;;;;5083463;28;20003;-57
2023/02/04 07:00:59;;;;;;;;;;;7.40;99.90;;;;;;5086856;28;19919;-61
2023/02/04 07:03:25;;;;;;;;;;;7.40;99.90;;;;;;5090414;28;19919;-61
2023/02/04 07:05:51;;;;;;;;;;;7.50;99.90;;;;;;5087136;28;19934;-61
2023/02/04 07:08:17;;;;;;;;;;;7.50;99.90;;;;;;5089600;28;20300;-60
2023/02/04 07:10:42;;;;;;;;;;;7.50;99.90;;;;;;5084490;28;19920;-61
2023/02/04 07:13:08;;;;;;;;;;;7.40;99.90;;;;;;5090617;28;19927;-60
2023/02/04 07:15:33;;;;;;;;;;;7.40;99.90;;;;;;5089677;28;19931;-61
2023/02/04 07:17:59;;;;;;;;;;;7.40;99.90;;;;;;5089704;28;20069;-61
2023/02/04 07:20:24;;;;;;;;;;;7.40;99.90;;;;;;5088273;28;20416;-61
2023/02/04 07:22:50;;;;;;;;;;;7.40;99.90;;;;;;5086703;28;19920;-62
2023/02/04 07:25:16;;;;;;;;;;;7.40;99.90;;;;;;5087054;28;19919;-62
2023/02/04 07:27:42;;;;;;;;;;;7.40;99.90;;;;;;5093947;28;19918;-61
2023/02/04 07:30:08;;;;;;;;;;;7.40;99.90;;;;;;5084533;28;20303;-61
2023/02/04 07:32:33;;;;;;;;;;;7.30;99.90;;;;;;5087774;28;20005;-62
2023/02/04 07:34:59;;;;;;;;;;;7.30;99.90;;;;;;5092107;28;20391;-62
2023/02/04 07:37:24;;;;;;;;;;;7.20;99.90;;;;;;5091466;28;20347;-60
2023/02/04 07:39:50;;;;;;;;;;;7.30;99.90;;;;;;5090871;28;20426;-60
2023/02/04 07:42:15;;;;;;;;;;;7.30;99.90;;;;;;5086775;28;20323;-59
2023/02/04 07:44:41;;;;;;;;;;;7.30;99.90;;;;;;5093085;28;19934;-60
2023/02/04 07:47:06;;;;;;;;;;;7.40;99.90;;;;;;5088319;28;19919;-60
2023/02/04 07:49:32;;;;;;;;;;;7.40;99.90;;;;;;5087908;28;20792;-58
2023/02/04 07:51:57;;;;;;;;;;;7.40;99.90;;;;;;5085857;28;20307;-61
2023/02/04 07:54:22;;;;;;;;;;;7.40;99.90;;;;;;5088704;28;19916;-58
2023/02/04 07:56:48;;;;;;;;;;;7.50;99.90;;;;;;5090106;28;19919;-57
2023/02/04 07:59:13;;;;;;;;;;;7.50;99.90;;;;;;5086531;28;19920;-58
2023/02/04 08:01:39;;;;;;;;;;;7.50;99.90;;;;;;5086419;28;20011;-58
2023/02/04 08:04:04;;;;;;;;;;;7.50;99.90;;;;;;5088354;28;19912;-55
2023/02/04 08:06:30;;;;;;;;;;;7.50;99.90;;;;;;5086891;28;19927;-61
2023/02/04 08:08:55;;;;;;;;;;;7.60;99.90;;;;;;5085360;28;19920;-61
2023/02/04 08:11:21;;;;;;;;;;;7.60;99.90;;;;;;5085489;28;19959;-61
2023/02/04 08:13:46;;;;;;;;;;;7.60;99.90;;;;;;5082616;28;19919;-61
2023/02/04 08:16:12;;;;;;;;;;;7.70;99.90;;;;;;5089631;28;20391;-61
2023/02/04 08:18:37;;;;;;;;;;;7.70;99.90;;;;;;5082572;28;20281;-61
2023/02/04 08:21:04;;;;;;;;;;;7.70;99.90;;;;;;5084478;28;20256;-61
2023/02/04 08:23:29;;;;;;;;;;;7.70;99.90;;;;;;5087841;28;19912;-59
2023/02/04 08:25:55;;;;;;;;;;;7.70;99.90;;;;;;5084112;28;20003;-62
2023/02/04 08:28:20;;;;;;;;;;;7.80;99.90;;;;;;5085875;28;19927;-60
2023/02/04 08:30:46;;;;;;;;;;;7.80;99.90;;;;;;5084548;28;19965;-61
2023/02/04 08:33:11;;;;;;;;;;;7.80;99.90;;;;;;5083552;28;19916;-62
2023/02/04 08:35:37;;;;;;;;;;;7.90;99.90;;;;;;5086510;28;19916;-61
2023/02/04 08:38:02;;;;;;;;;;;7.90;99.90;;;;;;5089104;28;19935;-61
2023/02/04 08:40:28;;;;;;;;;;;7.90;99.90;;;;;;5086530;28;19955;-60
2023/02/04 08:42:53;;;;;;;;;;;7.90;99.90;;;;;;5085771;28;19919;-60
2023/02/04 08:45:20;;;;;;;;;;;7.90;99.90;;;;;;5087615;28;19918;-61
2023/02/04 08:47:45;;;;;;;;;;;8.00;99.90;;;;;;5085815;28;20003;-61
2023/02/04 08:50:10;;;;;;;;;;;8.00;99.90;;;;;;5083213;28;20012;-61
2023/02/04 08:52:36;;;;;;;;;;;8.00;99.90;;;;;;5088136;28;19913;-59
2023/02/04 08:55:01;;;;;;;;;;;8.00;99.90;;;;;;5088153;28;19919;-61
2023/02/04 08:57:27;;;;;;;;;;;8.00;99.90;;;;;;5085553;28;20332;-62
2023/02/04 08:59:52;;;;;;;;;;;8.00;99.90;;;;;;5084281;28;19928;-60
2023/02/04 09:02:18;;;;;;;;;;;8.00;99.90;;;;;;5083161;28;20408;-60
2023/02/04 09:04:43;;;;;;;;;;;8.10;99.90;;;;;;5080982;28;19966;-61
2023/02/04 09:07:09;;;;;;;;;;;8.10;99.90;;;;;;5089731;28;19935;-61
2023/02/04 09:09:34;;;;;;;;;;;8.20;99.90;;;;;;5086130;28;19950;-57
2023/02/04 09:12:00;;;;;;;;;;;8.20;99.90;;;;;;5085065;28;19912;-61
2023/02/04 09:14:26;;;;;;;;;;;8.20;99.90;;;;;;5084482;28;19967;-61
2023/02/04 09:16:51;;;;;;;;;;;8.20;99.90;;;;;;5087573;28;20440;-60
2023/02/04 09:19:22;;;;;;;;;;;8.20;99.90;;;;;;5087199;28;19912;-61
2023/02/04 09:21:48;;;;;;;;;;;8.30;99.90;;;;;;5083053;28;19949;-61
2023/02/04 09:24:13;;;;;;;;;;;8.30;99.90;;;;;;5083902;28;19912;-61
2023/02/04 09:26:39;;;;;;;;;;;8.30;99.90;;;;;;5081945;28;19973;-60
2023/02/04 09:29:04;;;;;;;;;;;8.30;99.90;;;;;;5086118;28;19927;-60
2023/02/04 09:31:29;;;;;;;;;;;8.30;99.90;;;;;;5083193;28;19912;-59
2023/02/04 09:33:55;;;;;;;;;;;8.30;99.90;;;;;;5099860;22;19928;-63
2023/02/04 09:36:20;;;;;;;;;;;8.40;99.90;;;;;;5089967;28;19947;-63
2023/02/04 09:38:46;;;;;;;;;;;8.40;99.90;;;;;;5084971;28;20005;-64
2023/02/04 09:41:12;;;;;;;;;;;8.40;99.90;;;;;;5085433;28;19920;-62
2023/02/04 09:43:40;;;;;;;;;;;8.40;99.90;;;;;;5073639;28;20241;-64
2023/02/04 09:46:08;;;;;;;;;;;8.50;99.90;;;;;;5067745;28;19999;-64
2023/02/04 09:48:33;;;;;;;;;;;8.50;99.90;;;;;;5075192;28;19920;-64
2023/02/04 09:51:04;;;;;;;;;;;8.60;99.90;;;;;;5069427;28;20305;-64
2023/02/04 09:53:30;;;;;;;;;;;8.60;99.90;;;;;;5074218;28;19920;-64
2023/02/04 09:55:55;;;;;;;;;;;8.70;99.90;;;;;;5072926;28;19928;-64
2023/02/04 09:58:21;;;;;;;;;;;8.70;99.90;;;;;;5072870;28;19958;-64
2023/02/04 10:00:50;;;;;;;;;;;8.80;99.90;;;;;;5064256;28;19920;-64
2023/02/04 10:03:17;;;;;;;;;;;8.90;99.90;;;;;;5060675;28;19917;-63
2023/02/04 10:05:44;;;;;;;;;;;8.90;99.90;;;;;;5061881;28;19948;-64
2023/02/04 10:08:13;;;;;;;;;;;8.90;99.90;;;;;;5046823;28;19960;-64
2023/02/04 10:10:39;;;;;;;;;;;8.80;99.90;;;;;;5072280;28;20368;-63
2023/02/04 10:13:07;;;;;;;;;;;9.00;99.90;;;;;;5072681;28;20003;-63
2023/02/04 10:15:32;;;;;;;;;;;9.10;99.90;;;;;;5069936;28;19974;-62
2023/02/04 10:18:01;;;;;;;;;;;9.00;99.90;;;;;;5072169;28;19948;-64
2023/02/04 10:20:27;;;;;;;;;;;9.00;99.90;;;;;;5077002;28;19962;-64
2023/02/04 10:22:53;;;;;;;;;;;9.00;99.90;;;;;;5073814;28;19924;-63
2023/02/04 10:25:20;;;;;;;;;;;9.00;99.90;;;;;;5072996;28;19927;-62
2023/02/04 10:27:46;;;;;;;;;;;9.10;99.90;;;;;;5070313;28;19952;-63
2023/02/04 10:30:17;;;;;;;;;;;9.00;99.90;;;;;;5070015;28;19912;-63
2023/02/04 10:32:44;;;;;;;;;;;9.00;99.90;;;;;;5068567;28;19913;-63
2023/02/04 10:35:13;;;;;;;;;;;9.00;99.90;;;;;;5046290;28;19919;-64
2023/02/04 10:37:39;;;;;;;;;;;9.00;99.90;;;;;;5049059;28;19932;-63
2023/02/04 10:40:05;;;;;;;;;;;9.10;99.90;;;;;;5050795;28;20280;-62
2023/02/04 10:42:30;;;;;;;;;;;9.10;99.90;;;;;;5048495;28;19909;-63
2023/02/04 10:44:56;;;;;;;;;;;9.10;99.90;;;;;;5045266;28;19915;-64
2023/02/04 10:47:27;;;;;;;;;;;9.20;99.90;;;;;;5048665;28;19909;-64
2023/02/04 10:50:01;;;;;;;;;;;9.20;99.90;;;;;;5047071;28;19921;-63
2023/02/04 10:52:34;;;;;;;;;;;9.30;99.90;;;;;;5047389;28;20503;-64
2023/02/04 10:55:01;;;;;;;;;;;9.20;99.90;;;;;;5050731;28;19925;-64
2023/02/04 10:57:27;;;;;;;;;;;9.30;99.90;;;;;;5048524;28;19924;-63
2023/02/04 10:59:58;;;;;;;;;;;9.30;99.90;;;;;;5047271;28;19921;-63
2023/02/04 11:02:43;;;;;;;;;;;9.20;99.90;;;;;;5042597;28;19920;-63
2023/02/04 11:05:13;;;;;;;;;;;9.20;99.90;;;;;;5043767;28;19921;-63
2023/02/04 11:07:38;;;;;;;;;;;9.30;99.90;;;;;;5043672;28;19919;-64
2023/02/04 11:10:04;;;;;;;;;;;9.30;99.90;;;;;;5042124;28;20350;-63
2023/02/04 11:12:38;;;;;;;;;;;9.30;99.90;;;;;;5049493;28;19908;-64
2023/02/04 11:15:04;;;;;;;;;;;9.40;99.90;;;;;;5046898;28;19923;-63
2023/02/04 11:17:31;;;;;;;;;;;9.40;99.90;;;;;;5049514;28;19920;-63
2023/02/04 11:19:58;;;;;;;;;;;9.30;99.90;;;;;;5045759;28;19909;-64
2023/02/04 11:22:35;;;;;;;;;;;9.40;99.90;;;;;;5043706;28;20360;-63
2023/02/04 11:25:01;;;;;;;;;;;9.50;99.90;;;;;;5046976;28;19935;-63
2023/02/04 11:27:37;;;;;;;;;;;9.50;99.90;;;;;;5044924;28;19913;-63
2023/02/04 11:30:04;;;;;;;;;;;9.70;99.90;;;;;;5044483;28;20399;-62
2023/02/04 11:32:29;;;;;;;;;;;9.90;99.90;;;;;;5045320;28;20194;-63
2023/02/04 11:35:05;;;;;;;;;;;9.90;99.90;;;;;;5050362;28;20434;-64
2023/02/04 11:37:36;;;;;;;;;;;9.70;99.90;;;;;;5045167;28;19967;-63
2023/02/04 11:40:12;;;;;;;;;;;9.80;99.90;;;;;;5054320;28;19915;-63
2023/02/04 11:42:39;;;;;;;;;;;9.80;99.90;;;;;;5049137;28;19924;-63
2023/02/04 11:45:23;;;;;;;;;;;9.60;99.90;;;;;;5045589;28;19960;-63
2023/02/04 11:47:50;;;;;;;;;;;9.70;99.90;;;;;;5046166;28;19920;-64
2023/02/04 11:50:21;;;;;;;;;;;9.80;99.90;;;;;;5046193;28;19925;-64
2023/02/04 11:52:46;;;;;;;;;;;9.80;99.90;;;;;;5043279;28;19913;-63
2023/02/04 11:55:12;;;;;;;;;;;9.60;99.90;;;;;;5050126;28;19943;-62
2023/02/04 11:57:42;;;;;;;;;;;9.70;99.90;;;;;;5043926;28;19917;-62
2023/02/04 12:00:19;;;;;;;;;;;9.90;99.90;;;;;;5051480;28;19967;-63
2023/02/04 12:02:46;;;;;;;;;;;10.00;99.90;;;;;;5050043;28;19948;-63
2023/02/04 12:05:15;;;;;;;;;;;9.90;99.90;;;;;;5045129;28;20410;-63
2023/02/04 12:07:43;;;;;;;;;;;10.00;99.90;;;;;;5046687;28;19999;-64
2023/02/04 12:10:24;;;;;;;;;;;10.00;99.90;;;;;;5048206;28;20003;-64
2023/02/04 12:12:51;;;;;;;;;;;9.90;99.90;;;;;;5046386;28;19913;-64
2023/02/04 12:15:31;;;;;;;;;;;10.00;99.90;;;;;;5050212;28;19994;-63
2023/02/04 12:18:01;;;;;;;;;;;10.00;99.90;;;;;;5050721;28;20693;-62
2023/02/04 12:20:27;;;;;;;;;;;10.00;99.90;;;;;;5043353;28;19913;-62
2023/02/04 12:22:53;;;;;;;;;;;10.00;99.90;;;;;;5049560;28;20415;-63
2023/02/04 12:25:19;;;;;;;;;;;10.20;99.90;;;;;;5048842;28;20391;-63
2023/02/04 12:27:45;;;;;;;;;;;10.30;99.90;;;;;;5047610;28;19917;-64
2023/02/04 12:30:11;;;;;;;;;;;10.00;99.90;;;;;;5047099;28;20102;-63
2023/02/04 12:32:37;;;;;;;;;;;10.20;99.90;;;;;;5047892;28;19921;-64
2023/02/04 12:35:04;;;;;;;;;;;10.10;99.90;;;;;;5069114;28;19924;-64
2023/02/04 12:37:30;;;;;;;;;;;10.30;99.90;;;;;;5064459;28;19916;-64
2023/02/04 12:39:57;;;;;;;;;;;10.40;99.90;;;;;;5067200;28;20388;-63
2023/02/04 12:42:22;;;;;;;;;;;10.30;99.90;;;;;;5068989;28;20394;-63
2023/02/04 12:44:48;;;;;;;;;;;10.30;99.90;;;;;;5068285;28;19948;-63
2023/02/04 12:47:15;;;;;;;;;;;10.30;99.90;;;;;;5058338;28;19999;-63
2023/02/04 12:49:40;;;;;;;;;;;10.50;99.90;;;;;;5060953;28;19912;-63
2023/02/04 12:52:06;;;;;;;;;;;10.50;99.90;;;;;;5059873;28;20269;-63
2023/02/04 12:54:31;;;;;;;;;;;10.40;99.90;;;;;;5049563;28;19925;-63
2023/02/04 12:56:58;;;;;;;;;;;10.40;99.90;;;;;;5065761;28;19919;-64
2023/02/04 12:59:24;;;;;;;;;;;10.40;99.90;;;;;;5066962;28;19960;-63
2023/02/04 13:01:51;;;;;;;;;;;10.50;99.90;;;;;;5066349;28;19939;-64
2023/02/04 13:04:17;;;;;;;;;;;10.50;99.90;;;;;;5061407;28;20003;-62
2023/02/04 13:06:43;;;;;;;;;;;10.60;99.90;;;;;;5059841;28;19921;-62
2023/02/04 13:09:09;;;;;;;;;;;10.60;99.90;;;;;;5060705;28;19916;-63
2023/02/04 13:11:34;;;;;;;;;;;10.70;99.90;;;;;;5061163;28;19927;-62
2023/02/04 13:14:00;;;;;;;;;;;10.70;99.90;;;;;;5063519;28;19916;-64
2023/02/04 13:16:25;;;;;;;;;;;10.80;99.90;;;;;;5062017;28;19920;-63
2023/02/04 13:18:51;;;;;;;;;;;10.80;99.90;;;;;;5064963;28;19922;-64
2023/02/04 13:21:16;;;;;;;;;;;10.80;99.90;;;;;;5062380;28;19920;-64
2023/02/04 13:23:42;;;;;;;;;;;10.90;99.90;;;;;;5047654;28;21530;-64
2023/02/04 13:26:08;;;;;;;;;;;11.00;99.90;;;;;;5060758;28;19948;-63
2023/02/04 13:28:34;;;;;;;;;;;11.00;99.90;;;;;;5059000;28;20068;-64
2023/02/04 13:31:00;;;;;;;;;;;11.00;99.90;;;;;;5058966;28;19913;-64
2023/02/04 13:33:25;;;;;;;;;;;11.00;99.90;;;;;;5056919;28;19928;-63
2023/02/04 13:35:51;;;;;;;;;;;10.90;99.90;;;;;;5049005;28;19921;-63
2023/02/04 13:38:16;;;;;;;;;;;11.00;99.90;;;;;;5044585;28;19931;-64
2023/02/04 13:40:42;;;;;;;;;;;11.20;99.90;;;;;;5051407;28;19913;-65
2023/02/04 13:43:08;;;;;;;;;;;11.50;99.90;;;;;;5049312;28;20372;-63
2023/02/04 13:45:33;;;;;;;;;;;11.50;99.90;;;;;;5048494;28;19921;-63
2023/02/04 13:47:59;;;;;;;;;;;11.40;99.90;;;;;;5048732;28;19916;-63
2023/02/04 13:50:24;;;;;;;;;;;11.20;99.90;;;;;;5043614;28;19995;-62
2023/02/04 13:52:50;;;;;;;;;;;11.40;99.90;;;;;;5044629;28;19913;-62
2023/02/04 13:55:15;;;;;;;;;;;11.60;99.90;;;;;;5048622;28;19939;-63
2023/02/04 13:57:41;;;;;;;;;;;11.40;99.90;;;;;;5044203;28;19913;-63
2023/02/04 14:00:09;;;;;;;;;;;11.50;99.90;;;;;;5047298;28;19958;-63
2023/02/04 14:02:35;;;;;;;;;;;11.50;99.90;;;;;;5044140;28;20007;-63
2023/02/04 14:05:00;;;;;;;;;;;11.50;99.90;;;;;;5046646;28;19996;-63
2023/02/04 14:07:26;;;;;;;;;;;11.50;99.90;;;;;;5048059;28;20262;-63
2023/02/04 14:09:53;;;;;;;;;;;11.40;99.90;;;;;;5048715;28;19952;-62
2023/02/04 14:12:18;;;;;;;;;;;11.40;99.90;;;;;;5045717;28;19932;-62
2023/02/04 14:14:44;;;;;;;;;;;11.40;99.90;;;;;;5046320;28;19921;-63
2023/02/04 14:17:09;;;;;;;;;;;11.40;99.90;;;;;;5050980;28;19924;-62
2023/02/04 14:19:35;;;;;;;;;;;11.30;99.90;;;;;;5045729;28;19924;-62
2023/02/04 14:22:00;;;;;;;;;;;11.20;99.90;;;;;;5048948;28;19960;-61